TimeCDT,TemperatureF,Dew PointF,Humidity,Sea Level PressureIn,VisibilityMPH,Wind Direction,Wind SpeedMPH,Gust SpeedMPH,PrecipitationIn,Events,Conditions,WindDirDegrees,DateUTC
12:13 AM,68.9,65.5,89,29.83,10.0,Calm,Calm,-,N/A,,Clear,0,2013-06-27 05:13:00
12:33 AM,69.8,65.5,86,29.83,10.0,Calm,Calm,-,N/A,,Clear,0,2013-06-27 05:33:00
12:53 AM,70.0,65.5,86,29.83,10.0,Calm,Calm,-,N/A,,Clear,0,2013-06-27 05:53:00
1:13 AM,68.5,65.5,90,29.83,10.0,Calm,Calm,-,N/A,,Clear,0,2013-06-27 06:13:00
1:33 AM,68.0,65.7,92,29.83,10.0,Calm,Calm,-,N/A,,Clear,0,2013-06-27 06:33:00
1:52 AM,67.5,65.5,93,29.83,10.0,Calm,Calm,-,N/A,,Clear,0,2013-06-27 06:52:00
2:13 AM,67.1,64.8,92,29.83,10.0,Calm,Calm,-,N/A,,Clear,0,2013-06-27 07:13:00
2:33 AM,66.2,64.4,94,29.83,10.0,Calm,Calm,-,N/A,,Clear,0,2013-06-27 07:33:00
2:53 AM,66.0,64.4,94,29.84,10.0,Calm,Calm,-,N/A,,Clear,0,2013-06-27 07:53:00
3:13 AM,66.0,64.4,94,29.84,10.0,Calm,Calm,-,N/A,,Clear,0,2013-06-27 08:13:00
3:33 AM,65.8,64.4,95,29.84,10.0,Calm,Calm,-,N/A,,Scattered Clouds,0,2013-06-27 08:33:00
3:52 AM,65.8,63.5,92,29.84,10.0,WSW,5.8,-,N/A,,Scattered Clouds,250,2013-06-27 08:52:00
4:13 AM,65.7,63.0,91,29.83,10.0,WSW,5.8,-,N/A,,Scattered Clouds,250,2013-06-27 09:13:00
4:33 AM,65.3,62.6,91,29.84,10.0,WSW,5.8,-,N/A,,Clear,250,2013-06-27 09:33:00
4:52 AM,65.5,62.8,91,29.84,10.0,WSW,5.8,-,N/A,,Clear,250,2013-06-27 09:52:00
5:13 AM,64.6,62.6,93,29.84,10.0,WSW,5.8,-,N/A,,Scattered Clouds,250,2013-06-27 10:13:00
5:33 AM,64.9,62.6,92,29.84,10.0,WSW,5.8,-,N/A,,Scattered Clouds,250,2013-06-27 10:33:00
5:53 AM,64.8,62.2,92,29.84,10.0,WSW,4.6,-,N/A,,Clear,250,2013-06-27 10:53:00
6:13 AM,64.6,62.4,93,29.84,10.0,West,4.6,-,N/A,,Clear,260,2013-06-27 11:13:00
6:33 AM,65.5,63.0,92,29.85,10.0,West,5.8,-,N/A,,Clear,260,2013-06-27 11:33:00
6:53 AM,67.6,63.9,88,29.85,10.0,West,6.9,-,N/A,,Clear,260,2013-06-27 11:53:00
7:13 AM,68.0,63.5,85,29.86,10.0,West,6.9,-,N/A,,Clear,270,2013-06-27 12:13:00
7:33 AM,68.4,63.7,85,29.87,10.0,West,8.1,-,N/A,,Clear,280,2013-06-27 12:33:00
7:53 AM,70.0,63.1,79,29.86,10.0,WNW,10.4,-,N/A,,Clear,290,2013-06-27 12:53:00
8:13 AM,71.4,62.2,73,29.86,10.0,West,11.5,-,N/A,,Clear,280,2013-06-27 13:13:00
8:33 AM,72.7,62.4,70,29.87,10.0,West,11.5,-,N/A,,Clear,280,2013-06-27 13:33:00
8:53 AM,72.9,61.7,68,29.87,10.0,WNW,9.2,-,N/A,,Clear,290,2013-06-27 13:53:00
9:13 AM,74.7,61.0,62,29.87,10.0,WNW,11.5,19.6,N/A,,Clear,290,2013-06-27 14:13:00
9:33 AM,75.9,60.4,59,29.86,10.0,WNW,13.8,19.6,N/A,,Clear,300,2013-06-27 14:33:00
9:53 AM,77.0,59.0,54,29.86,10.0,WNW,13.8,20.7,N/A,,Clear,290,2013-06-27 14:53:00
10:13 AM,78.1,57.2,49,29.86,10.0,WNW,17.3,21.9,N/A,,Clear,290,2013-06-27 15:13:00
10:33 AM,78.8,56.7,46,29.86,10.0,WNW,13.8,25.3,N/A,,Clear,300,2013-06-27 15:33:00
10:53 AM,79.2,55.9,45,29.87,10.0,WNW,18.4,25.3,N/A,,Clear,290,2013-06-27 15:53:00
11:12 AM,79.9,55.2,43,29.87,10.0,WNW,15.0,24.2,N/A,,Clear,290,2013-06-27 16:12:00
11:33 AM,80.1,53.6,40,29.87,10.0,WNW,20.7,27.6,N/A,,Clear,290,2013-06-27 16:33:00
11:53 AM,81.1,53.2,38,29.88,10.0,West,19.6,26.5,N/A,,Clear,280,2013-06-27 16:53:00
12:13 PM,81.0,51.3,36,29.88,10.0,WNW,15.0,25.3,N/A,,Clear,300,2013-06-27 17:13:00
12:33 PM,81.9,48.9,32,29.88,10.0,NW,17.3,27.6,N/A,,Clear,310,2013-06-27 17:33:00
12:53 PM,81.9,48.4,31,29.88,10.0,WNW,17.3,29.9,N/A,,Clear,300,2013-06-27 17:53:00
1:13 PM,83.3,49.1,30,29.88,10.0,West,23.0,27.6,N/A,,Clear,280,2013-06-27 18:13:00
1:32 PM,82.4,48.6,31,29.88,10.0,WNW,16.1,28.8,N/A,,Clear,290,2013-06-27 18:32:00
1:53 PM,82.9,48.9,31,29.88,10.0,WNW,18.4,24.2,N/A,,Clear,290,2013-06-27 18:53:00
2:13 PM,82.8,48.6,30,29.88,10.0,NW,17.3,25.3,N/A,,Clear,310,2013-06-27 19:13:00
2:33 PM,83.3,50.2,32,29.89,10.0,WNW,15.0,24.2,N/A,,Clear,300,2013-06-27 19:33:00
2:53 PM,82.8,49.8,32,29.88,10.0,WNW,17.3,24.2,N/A,,Clear,300,2013-06-27 19:53:00
3:13 PM,83.3,49.8,31,29.88,10.0,WNW,16.1,23.0,N/A,,Clear,290,2013-06-27 20:13:00
3:32 PM,83.3,48.9,30,29.87,10.0,NW,17.3,25.3,N/A,,Clear,320,2013-06-27 20:32:00
3:53 PM,83.1,50.9,33,29.88,10.0,West,17.3,23.0,N/A,,Clear,280,2013-06-27 20:53:00
4:13 PM,82.4,50.9,33,29.88,10.0,WNW,16.1,21.9,N/A,,Scattered Clouds,300,2013-06-27 21:13:00
4:33 PM,83.1,50.2,32,29.88,10.0,WNW,17.3,25.3,N/A,,Clear,290,2013-06-27 21:33:00
4:53 PM,82.8,51.4,34,29.87,10.0,NW,11.5,21.9,N/A,,Clear,310,2013-06-27 21:53:00
5:13 PM,81.0,52.3,37,29.86,10.0,WNW,12.7,21.9,N/A,,Mostly Cloudy,290,2013-06-27 22:13:00
5:33 PM,81.0,53.2,38,29.86,10.0,NW,12.7,16.1,N/A,,Overcast,310,2013-06-27 22:33:00
5:53 PM,81.7,55.2,40,29.85,10.0,NW,10.4,-,N/A,,Scattered Clouds,310,2013-06-27 22:53:00
6:13 PM,82.6,54.1,37,29.85,10.0,West,12.7,20.7,N/A,,Clear,280,2013-06-27 23:13:00
6:33 PM,82.8,53.4,36,29.85,10.0,West,17.3,21.9,N/A,,Clear,280,2013-06-27 23:33:00
6:53 PM,80.6,53.8,39,29.85,10.0,WNW,11.5,18.4,N/A,,Scattered Clouds,290,2013-06-27 23:53:00
7:12 PM,81.9,55.2,40,29.84,10.0,WNW,11.5,17.3,N/A,,Scattered Clouds,290,2013-06-28 00:12:00
7:33 PM,81.5,51.6,35,29.84,10.0,West,13.8,19.6,N/A,,Clear,280,2013-06-28 00:33:00
7:53 PM,80.6,51.8,37,29.84,10.0,WNW,10.4,-,N/A,,Clear,290,2013-06-28 00:53:00
8:13 PM,79.7,51.3,37,29.84,10.0,West,10.4,16.1,N/A,,Clear,280,2013-06-28 01:13:00
8:32 PM,78.4,51.4,39,29.84,10.0,West,8.1,-,N/A,,Clear,280,2013-06-28 01:32:00
8:53 PM,76.6,51.8,42,29.84,10.0,WNW,6.9,-,N/A,,Clear,290,2013-06-28 01:53:00
9:13 PM,76.1,50.4,40,29.84,10.0,WNW,9.2,-,N/A,,Clear,300,2013-06-28 02:13:00
9:32 PM,75.4,49.5,40,29.84,10.0,WNW,8.1,-,N/A,,Clear,290,2013-06-28 02:32:00
9:53 PM,73.8,50.4,44,29.84,10.0,West,4.6,-,N/A,,Clear,280,2013-06-28 02:53:00
10:13 PM,71.6,51.8,50,29.84,10.0,WNW,4.6,-,N/A,,Clear,290,2013-06-28 03:13:00
10:33 PM,71.4,52.0,50,29.84,10.0,WNW,5.8,-,N/A,,Clear,290,2013-06-28 03:33:00
10:53 PM,70.9,52.3,52,29.85,10.0,WNW,6.9,-,N/A,,Clear,300,2013-06-28 03:53:00
11:12 PM,70.7,53.1,54,29.85,10.0,WNW,5.8,-,N/A,,Clear,300,2013-06-28 04:12:00
11:33 PM,69.8,54.0,57,29.86,10.0,WNW,4.6,-,N/A,,Clear,300,2013-06-28 04:33:00
11:53 PM,70.3,54.1,56,29.86,10.0,WNW,5.8,-,N/A,,Clear,300,2013-06-28 04:53:00